This is the latest recevied weather packets stored in our database for station/object N3TTT-13. If no packets are shown the sender has not sent any weather packets the latest 10 day(s).
| Time | Temp. | Humidity | Pressure | Rain* | Wind** | Luminosity | Snow |
|---|---|---|---|---|---|---|---|
| 1777666723 | 18.33° C | 45% | 1012.2 hPa | 0 mm | - | 61 W/m² | - |
| 1777666420 | 18.33° C | 43% | 1012.2 hPa | 0 mm | - | 172 W/m² | - |
| 1777666117 | 18.33° C | 41% | 1012.5 hPa | 0 mm | - | 70 W/m² | - |
| 1777665814 | 18.89° C | 44% | 1012.3 hPa | 0 mm | - | 76 W/m² | - |
| 1777665512 | 18.33° C | 41% | 1012.2 hPa | 0 mm | - | 113 W/m² | - |
| 1777665207 | 18.33° C | 42% | 1012.2 hPa | 0 mm | - | 103 W/m² | - |
| 1777664903 | 18.89° C | 41% | 1012.4 hPa | 0 mm | - | 80 W/m² | - |
| 1777664600 | 18.89° C | 41% | 1012.6 hPa | 0 mm | - | 57 W/m² | - |
| 1777664296 | 18.33° C | 45% | 1012.6 hPa | 0 mm | - | 58 W/m² | - |
| 1777663995 | 18.89° C | 37% | 1012.5 hPa | 0 mm | - | 514 W/m² | - |
| 1777663692 | 18.89° C | 40% | 1012.6 hPa | 0 mm | - | 551 W/m² | - |
| 1777663389 | 18.89° C | 37% | 1012.5 hPa | 0 mm | - | 527 W/m² | - |
| 1777663086 | 18.89° C | 40% | 1012.8 hPa | 0 mm | - | 564 W/m² | - |
| 1777662783 | 18.33° C | 37% | 1013 hPa | 0 mm | - | 581 W/m² | - |
| 1777662480 | 18.89° C | 41% | 1012.7 hPa | 0 mm | - | 338 W/m² | - |
| 1777662175 | 18.33° C | 39% | 1012.8 hPa | 0 mm | - | 425 W/m² | - |
| 1777661871 | 17.78° C | 39% | 1013 hPa | 0 mm | - | 345 W/m² | - |
| 1777661567 | 17.78° C | 39% | 1013.1 hPa | 0 mm | - | 344 W/m² | - |
| 1777661263 | 18.33° C | 40% | 1013.1 hPa | 0 mm | - | 445 W/m² | - |
| 1777660959 | 18.33° C | 39% | 1013 hPa | 0 mm | - | 314 W/m² | - |
| 1777660655 | 18.33° C | 38% | 1013.2 hPa | 0 mm | - | 239 W/m² | - |
| 1777660352 | 18.33° C | 38% | 1013.3 hPa | 0 mm | - | 307 W/m² | - |
| 1777660048 | 18.89° C | 39% | 1013.4 hPa | 0 mm | - | 462 W/m² | - |
| 1777659745 | 18.89° C | 40% | 1013.6 hPa | 0 mm | - | 609 W/m² | - |
| 1777659442 | 17.78° C | 42% | 1013.5 hPa | 0 mm | - | 547 W/m² | - |
* Rain latest hour (hover to see other rain measurements)
** Current wind speed in m/s (hover to see current wind gust speed)